Wetterdaten: Woche 30.07.18 - 05.08.18 (KW31)
Datum Zeit Temp. A. Feuchte A. Luftdruck Regen Wind Richtung Taupunkt Windchill Windben
30.07.2018 00:00 22,3 C 78 % 1013,1 hPa 0,0 l/m 0,1 km/h N 18,2 C 22,3 C 2,0 km/h
30.07.2018 01:00 21,5 C 79 % 1013,1 hPa 0,0 l/m 0,0 km/h N 17,7 C 21,5 C 0,8 km/h
30.07.2018 02:00 21,2 C 80 % 1013,2 hPa 0,0 l/m 0,1 km/h N 17,6 C 21,2 C 2,4 km/h
30.07.2018 03:00 21,0 C 79 % 1013,3 hPa 0,0 l/m 0,0 km/h N 17,3 C 21,0 C 0,4 km/h
30.07.2018 04:00 20,3 C 81 % 1013,5 hPa 0,0 l/m 0,0 km/h N 16,9 C 20,3 C 1,2 km/h
30.07.2018 05:00 20,0 C 81 % 1013,6 hPa 0,0 l/m 0,0 km/h N 16,6 C 20,0 C 0,8 km/h
30.07.2018 06:00 19,8 C 81 % 1013,9 hPa 0,0 l/m 0,0 km/h N 16,4 C 19,8 C 0,0 km/h
30.07.2018 07:00 21,4 C 80 % 1014,0 hPa 0,0 l/m 1,3 km/h N 17,7 C 21,4 C 6,8 km/h
30.07.2018 08:00 24,2 C 73 % 1014,3 hPa 0,0 l/m 3,6 km/h N 18,9 C 24,2 C 11,7 km/h
30.07.2018 09:00 26,4 C 67 % 1014,5 hPa 0,0 l/m 4,1 km/h N 19,7 C 26,4 C 13,7 km/h
30.07.2018 10:00 27,5 C 64 % 1014,6 hPa 0,0 l/m 5,6 km/h N 20,0 C 27,4 C 16,9 km/h
30.07.2018 11:00 28,7 C 59 % 1014,8 hPa 0,0 l/m 4,2 km/h N 19,9 C 28,7 C 14,9 km/h
30.07.2018 12:00 29,7 C 57 % 1014,5 hPa 0,0 l/m 4,7 km/h N 20,1 C 29,7 C 18,5 km/h
30.07.2018 13:00 30,2 C 54 % 1014,2 hPa 0,0 l/m 4,9 km/h N 19,7 C 30,2 C 18,1 km/h
30.07.2018 14:00 30,7 C 47 % 1014,0 hPa 0,0 l/m 3,7 km/h N 18,0 C 30,7 C 18,9 km/h
30.07.2018 15:00 31,0 C 44 % 1013,5 hPa 0,0 l/m 3,6 km/h N 17,4 C 31,0 C 15,7 km/h
30.07.2018 16:00 30,8 C 45 % 1013,2 hPa 0,0 l/m 2,4 km/h N 17,5 C 30,8 C 13,7 km/h
30.07.2018 17:00 30,7 C 49 % 1013,1 hPa 0,0 l/m 5,5 km/h N 18,7 C 30,7 C 19,3 km/h
30.07.2018 18:00 29,8 C 53 % 1013,1 hPa 0,0 l/m 4,9 km/h N 19,2 C 29,8 C 18,1 km/h
30.07.2018 19:00 28,8 C 53 % 1013,3 hPa 0,0 l/m 2,5 km/h N 18,4 C 28,8 C 13,7 km/h
30.07.2018 20:00 27,8 C 54 % 1013,4 hPa 0,0 l/m 3,0 km/h N 17,7 C 27,8 C 12,5 km/h
30.07.2018 21:00 27,1 C 57 % 1013,6 hPa 0,0 l/m 1,4 km/h N 17,9 C 27,1 C 7,2 km/h
30.07.2018 22:00 26,1 C 60 % 1014,0 hPa 0,0 l/m 0,2 km/h N 17,6 C 26,1 C 1,6 km/h
30.07.2018 23:00 24,0 C 68 % 1014,5 hPa 0,0 l/m 0,1 km/h N 17,8 C 24,0 C 1,2 km/h
31.07.2018 00:00 22,4 C 73 % 1014,8 hPa 0,0 l/m 0,1 km/h N 17,3 C 22,4 C 2,0 km/h
31.07.2018 01:00 21,5 C 75 % 1014,6 hPa 0,0 l/m 0,0 km/h N 16,9 C 21,5 C 0,4 km/h
31.07.2018 02:00 21,0 C 77 % 1014,4 hPa 0,0 l/m 0,0 km/h N 16,9 C 21,0 C 2,0 km/h
31.07.2018 03:00 20,8 C 77 % 1014,4 hPa 0,0 l/m 0,0 km/h N 16,5 C 20,8 C 0,4 km/h
31.07.2018 04:00 19,9 C 79 % 1014,4 hPa 0,0 l/m 0,0 km/h N 16,0 C 19,9 C 0,0 km/h
31.07.2018 05:00 19,3 C 80 % 1014,4 hPa 0,0 l/m 0,0 km/h N 15,8 C 19,3 C 0,0 km/h
31.07.2018 06:00 19,9 C 80 % 1014,6 hPa 0,0 l/m 0,5 km/h N 16,3 C 19,9 C 2,8 km/h
31.07.2018 07:00 22,9 C 73 % 1014,3 hPa 0,0 l/m 2,8 km/h N 17,9 C 22,9 C 10,9 km/h
31.07.2018 08:00 24,5 C 70 % 1014,6 hPa 0,0 l/m 4,0 km/h N 18,7 C 24,5 C 12,9 km/h
31.07.2018 09:00 26,0 C 67 % 1014,5 hPa 0,0 l/m 6,1 km/h N 19,4 C 26,0 C 15,7 km/h
31.07.2018 10:00 27,6 C 64 % 1014,5 hPa 0,0 l/m 4,7 km/h N 20,1 C 27,6 C 16,9 km/h
31.07.2018 11:00 28,7 C 60 % 1014,3 hPa 0,0 l/m 6,1 km/h N 20,1 C 28,7 C 18,1 km/h
31.07.2018 12:00 29,8 C 54 % 1014,3 hPa 0,0 l/m 5,0 km/h N 19,3 C 29,8 C 19,7 km/h
31.07.2018 13:00 30,4 C 52 % 1014,0 hPa 0,0 l/m 5,2 km/h N 19,5 C 30,4 C 20,1 km/h
31.07.2018 14:00 31,1 C 48 % 1013,5 hPa 0,0 l/m 5,1 km/h N 18,6 C 31,1 C 19,3 km/h
31.07.2018 15:00 31,4 C 47 % 1013,2 hPa 0,0 l/m 5,1 km/h N 18,8 C 31,4 C 19,3 km/h
31.07.2018 16:00 31,4 C 47 % 1012,9 hPa 0,0 l/m 5,0 km/h N 18,6 C 31,4 C 21,3 km/h
31.07.2018 17:00 31,7 C 46 % 1012,7 hPa 0,0 l/m 4,9 km/h N 18,7 C 31,7 C 18,1 km/h
31.07.2018 18:00 32,0 C 44 % 1012,5 hPa 0,0 l/m 3,3 km/h N 18,1 C 32,0 C 15,3 km/h
31.07.2018 19:00 31,7 C 44 % 1012,5 hPa 0,0 l/m 2,1 km/h N 18,0 C 31,7 C 12,1 km/h
31.07.2018 20:00 30,1 C 49 % 1013,0 hPa 0,0 l/m 0,2 km/h N 18,2 C 30,1 C 2,8 km/h
31.07.2018 21:00 27,9 C 56 % 1013,8 hPa 0,0 l/m 0,3 km/h N 18,3 C 27,9 C 3,2 km/h
31.07.2018 22:00 26,9 C 58 % 1014,2 hPa 0,0 l/m 0,4 km/h N 17,8 C 26,9 C 3,6 km/h
31.07.2018 23:00 26,8 C 56 % 1014,3 hPa 0,0 l/m 2,2 km/h N 17,3 C 26,8 C 6,0 km/h
01.08.2018 00:00 25,8 C 61 % 1014,2 hPa 0,0 l/m 1,0 km/h N 17,6 C 25,8 C 4,4 km/h
01.08.2018 01:00 24,7 C 65 % 1014,3 hPa 0,0 l/m 0,2 km/h N 17,6 C 24,7 C 4,4 km/h
01.08.2018 02:00 23,6 C 68 % 1014,2 hPa 0,0 l/m 0,0 km/h N 17,4 C 23,6 C 0,4 km/h
01.08.2018 03:00 22,2 C 74 % 1014,3 hPa 0,0 l/m 0,0 km/h N 17,3 C 22,2 C 0,0 km/h
01.08.2018 04:00 21,3 C 77 % 1014,7 hPa 0,0 l/m 0,1 km/h N 17,1 C 21,3 C 2,4 km/h
01.08.2018 05:00 21,8 C 76 % 1014,9 hPa 0,0 l/m 0,7 km/h N 17,4 C 21,8 C 4,8 km/h
01.08.2018 06:00 22,3 C 75 % 1014,9 hPa 0,0 l/m 2,0 km/h N 17,7 C 22,3 C 8,4 km/h
01.08.2018 07:00 23,3 C 73 % 1015,0 hPa 0,0 l/m 3,6 km/h N 18,1 C 23,3 C 10,5 km/h
01.08.2018 08:00 24,2 C 71 % 1015,3 hPa 0,0 l/m 5,1 km/h N 18,5 C 24,2 C 14,9 km/h
01.08.2018 09:00 25,7 C 67 % 1015,6 hPa 0,0 l/m 5,3 km/h N 19,1 C 25,7 C 18,1 km/h
01.08.2018 10:00 26,9 C 65 % 1015,7 hPa 0,0 l/m 4,3 km/h N 19,7 C 26,9 C 16,1 km/h
01.08.2018 11:00 27,9 C 63 % 1015,8 hPa 0,0 l/m 3,4 km/h N 20,1 C 27,9 C 16,9 km/h
01.08.2018 12:00 28,9 C 61 % 1015,7 hPa 0,0 l/m 3,8 km/h N 20,4 C 28,9 C 14,9 km/h
01.08.2018 13:00 29,4 C 58 % 1015,4 hPa 0,0 l/m 2,2 km/h N 20,2 C 29,4 C 12,9 km/h
01.08.2018 14:00 30,1 C 57 % 1014,7 hPa 0,0 l/m 2,1 km/h N 20,6 C 30,1 C 14,9 km/h
01.08.2018 15:00 30,1 C 55 % 1014,5 hPa 0,0 l/m 1,9 km/h N 20,0 C 30,1 C 12,5 km/h
01.08.2018 16:00 30,5 C 54 % 1014,1 hPa 0,0 l/m 3,1 km/h N 19,9 C 30,5 C 15,3 km/h
01.08.2018 17:00 31,1 C 52 % 1014,2 hPa 0,0 l/m 2,5 km/h N 20,0 C 31,1 C 15,3 km/h
01.08.2018 18:00 29,2 C 58 % 1014,9 hPa 0,0 l/m 3,0 km/h N 20,1 C 29,2 C 14,9 km/h
01.08.2018 19:00 28,5 C 61 % 1014,8 hPa 0,0 l/m 0,4 km/h N 20,2 C 28,5 C 3,6 km/h
01.08.2018 20:00 26,7 C 65 % 1015,3 hPa 0,0 l/m 0,0 km/h N 19,6 C 26,7 C 0,0 km/h
01.08.2018 21:00 24,5 C 71 % 1016,2 hPa 0,0 l/m 0,0 km/h N 18,8 C 24,5 C 0,4 km/h
01.08.2018 22:00 23,7 C 75 % 1016,6 hPa 0,0 l/m 0,0 km/h N 19,0 C 23,7 C 1,6 km/h
01.08.2018 23:00 22,8 C 78 % 1016,7 hPa 0,0 l/m 0,0 km/h N 18,6 C 22,8 C 0,0 km/h
02.08.2018 00:00 21,8 C 80 % 1016,5 hPa 0,0 l/m 0,0 km/h N 18,1 C 21,8 C 0,0 km/h
02.08.2018 01:00 21,1 C 81 % 1016,3 hPa 0,0 l/m 0,0 km/h N 17,7 C 21,1 C 0,4 km/h
02.08.2018 02:00 20,7 C 81 % 1016,5 hPa 0,0 l/m 0,0 km/h N 17,3 C 20,7 C 1,2 km/h
02.08.2018 03:00 20,7 C 81 % 1016,7 hPa 0,0 l/m 0,0 km/h N 17,3 C 20,7 C 0,0 km/h
02.08.2018 04:00 20,7 C 81 % 1016,5 hPa 0,0 l/m 0,0 km/h N 17,3 C 20,7 C 0,0 km/h
02.08.2018 05:00 20,4 C 81 % 1016,6 hPa 0,0 l/m 0,0 km/h N 17,0 C 20,4 C 0,8 km/h
02.08.2018 06:00 20,3 C 81 % 1016,9 hPa 0,0 l/m 0,1 km/h N 16,9 C 20,3 C 2,0 km/h
02.08.2018 07:00 21,5 C 81 % 1017,4 hPa 0,0 l/m 0,5 km/h N 18,1 C 21,5 C 5,2 km/h
02.08.2018 08:00 24,0 C 77 % 1017,8 hPa 0,0 l/m 0,9 km/h N 19,6 C 24,0 C 5,2 km/h
02.08.2018 09:00 26,7 C 67 % 1017,8 hPa 0,0 l/m 2,7 km/h N 20,1 C 26,7 C 10,1 km/h
02.08.2018 10:00 27,9 C 64 % 1017,8 hPa 0,0 l/m 1,4 km/h N 20,3 C 27,9 C 7,2 km/h
02.08.2018 11:00 28,9 C 61 % 1017,9 hPa 0,0 l/m 0,7 km/h N 20,5 C 28,9 C 7,6 km/h
02.08.2018 12:00 29,8 C 59 % 1017,5 hPa 0,0 l/m 2,5 km/h N 20,8 C 29,8 C 12,1 km/h
02.08.2018 13:00 30,5 C 55 % 1016,7 hPa 0,0 l/m 2,3 km/h N 20,5 C 30,5 C 11,7 km/h
02.08.2018 14:00 31,1 C 52 % 1016,3 hPa 0,0 l/m 1,8 km/h N 20,2 C 31,1 C 13,7 km/h
02.08.2018 15:00 31,0 C 52 % 1016,0 hPa 0,0 l/m 1,8 km/h N 19,9 C 31,0 C 11,3 km/h
02.08.2018 16:00 27,8 C 67 % 1016,4 hPa 0,0 l/m 2,1 km/h N 21,0 C 27,8 C 8,9 km/h
02.08.2018 17:00 26,8 C 71 % 1016,7 hPa 0,0 l/m 1,1 km/h N 21,1 C 26,8 C 6,4 km/h
02.08.2018 18:00 26,2 C 76 % 1016,6 hPa 0,0 l/m 0,4 km/h N 21,6 C 26,2 C 4,4 km/h
02.08.2018 19:00 25,9 C 77 % 1016,6 hPa 0,0 l/m 0,2 km/h N 21,4 C 25,9 C 3,2 km/h
02.08.2018 20:00 25,5 C 77 % 1017,0 hPa 0,0 l/m 0,0 km/h N 21,2 C 25,5 C 0,0 km/h
02.08.2018 21:00 24,4 C 79 % 1017,4 hPa 0,0 l/m 0,0 km/h N 20,4 C 24,4 C 0,4 km/h
02.08.2018 22:00 23,3 C 81 % 1017,5 hPa 0,0 l/m 0,0 km/h N 19,8 C 23,3 C 0,4 km/h
02.08.2018 23:00 22,7 C 81 % 1017,5 hPa 0,0 l/m 0,1 km/h N 19,3 C 22,7 C 2,4 km/h
03.08.2018 00:00 22,5 C 81 % 1017,5 hPa 0,0 l/m 0,4 km/h N 19,0 C 22,5 C 3,2 km/h
03.08.2018 01:00 21,8 C 81 % 1017,4 hPa 0,0 l/m 0,0 km/h N 18,4 C 21,8 C 0,4 km/h
03.08.2018 02:00 21,0 C 81 % 1017,2 hPa 0,0 l/m 0,0 km/h N 17,7 C 21,0 C 0,0 km/h
03.08.2018 03:00 20,6 C 82 % 1017,3 hPa 0,0 l/m 0,0 km/h N 17,4 C 20,6 C 0,0 km/h
03.08.2018 04:00 20,6 C 82 % 1017,5 hPa 0,0 l/m 0,0 km/h N 17,4 C 20,6 C 0,0 km/h
03.08.2018 05:00 20,1 C 82 % 1017,6 hPa 0,0 l/m 0,0 km/h N 17,0 C 20,1 C 0,0 km/h
03.08.2018 06:00 20,1 C 82 % 1017,9 hPa 0,0 l/m 0,0 km/h N 16,9 C 20,1 C 0,4 km/h
03.08.2018 07:00 21,4 C 82 % 1018,0 hPa 0,0 l/m 1,9 km/h N 18,1 C 21,4 C 8,9 km/h
03.08.2018 08:00 24,3 C 76 % 1018,3 hPa 0,0 l/m 5,7 km/h N 19,8 C 24,2 C 18,1 km/h
03.08.2018 09:00 25,8 C 71 % 1018,4 hPa 0,0 l/m 5,1 km/h N 20,2 C 25,7 C 15,3 km/h
03.08.2018 10:00 26,6 C 69 % 1018,2 hPa 0,0 l/m 4,4 km/h N 20,4 C 26,6 C 14,5 km/h
03.08.2018 11:00 27,5 C 66 % 1018,1 hPa 0,0 l/m 4,9 km/h N 20,6 C 27,5 C 14,1 km/h
03.08.2018 12:00 29,3 C 61 % 1017,7 hPa 0,0 l/m 4,7 km/h N 20,9 C 29,3 C 16,9 km/h
03.08.2018 13:00 30,7 C 55 % 1017,0 hPa 0,0 l/m 2,5 km/h N 20,7 C 30,7 C 13,3 km/h
03.08.2018 14:00 31,6 C 51 % 1016,4 hPa 0,0 l/m 3,2 km/h N 20,3 C 31,6 C 16,5 km/h
03.08.2018 15:00 31,4 C 46 % 1016,2 hPa 0,0 l/m 2,6 km/h N 18,2 C 31,4 C 12,5 km/h
03.08.2018 16:00 32,0 C 42 % 1015,5 hPa 0,0 l/m 2,1 km/h N 17,5 C 32,0 C 10,1 km/h
03.08.2018 17:00 32,3 C 43 % 1015,0 hPa 0,0 l/m 1,6 km/h N 18,0 C 32,3 C 9,7 km/h
03.08.2018 18:00 32,4 C 40 % 1014,8 hPa 0,0 l/m 1,8 km/h N 17,0 C 32,4 C 10,9 km/h
03.08.2018 19:00 32,4 C 42 % 1014,8 hPa 0,0 l/m 1,8 km/h N 17,8 C 32,4 C 13,3 km/h
03.08.2018 20:00 29,9 C 55 % 1015,2 hPa 0,0 l/m 0,2 km/h N 19,7 C 29,9 C 3,6 km/h
03.08.2018 21:00 27,2 C 63 % 1015,7 hPa 0,0 l/m 0,0 km/h N 19,6 C 27,2 C 0,0 km/h
03.08.2018 22:00 25,2 C 70 % 1016,0 hPa 0,0 l/m 0,1 km/h N 19,2 C 25,2 C 0,8 km/h
03.08.2018 23:00 23,9 C 74 % 1016,2 hPa 0,0 l/m 0,0 km/h N 19,0 C 23,9 C 0,0 km/h
04.08.2018 00:00 22,7 C 78 % 1016,1 hPa 0,0 l/m 0,0 km/h N 18,7 C 22,7 C 0,8 km/h
04.08.2018 01:00 21,8 C 80 % 1016,1 hPa 0,0 l/m 0,0 km/h N 18,1 C 21,8 C 0,8 km/h
04.08.2018 02:00 21,3 C 81 % 1016,0 hPa 0,0 l/m 0,1 km/h N 17,8 C 21,3 C 2,0 km/h
04.08.2018 03:00 21,0 C 80 % 1015,8 hPa 0,0 l/m 0,0 km/h N 17,4 C 21,0 C 0,8 km/h
04.08.2018 04:00 20,5 C 81 % 1015,7 hPa 0,0 l/m 0,3 km/h N 17,1 C 20,5 C 3,6 km/h
04.08.2018 05:00 20,1 C 81 % 1015,7 hPa 0,0 l/m 0,1 km/h N 16,7 C 20,1 C 2,0 km/h
04.08.2018 06:00 19,9 C 81 % 1016,0 hPa 0,0 l/m 0,1 km/h N 16,6 C 19,9 C 1,6 km/h
04.08.2018 07:00 20,5 C 81 % 1016,4 hPa 0,0 l/m 0,0 km/h N 17,1 C 20,5 C 0,0 km/h
04.08.2018 08:00 22,2 C 80 % 1016,4 hPa 0,0 l/m 0,1 km/h N 18,4 C 22,2 C 2,8 km/h
04.08.2018 09:00 26,0 C 69 % 1016,2 hPa 0,0 l/m 0,1 km/h N 19,9 C 26,0 C 2,4 km/h
04.08.2018 10:00 29,1 C 63 % 1015,9 hPa 0,0 l/m 0,3 km/h N 21,3 C 29,1 C 5,2 km/h
04.08.2018 11:00 31,4 C 56 % 1015,5 hPa 0,0 l/m 0,5 km/h N 21,6 C 31,4 C 7,3 km/h
04.08.2018 12:00 33,2 C 48 % 1015,3 hPa 0,0 l/m 0,7 km/h N 20,5 C 33,2 C 7,6 km/h
04.08.2018 13:00 32,9 C 45 % 1015,1 hPa 0,0 l/m 0,4 km/h N 19,4 C 32,9 C 6,8 km/h
04.08.2018 14:00 32,7 C 45 % 1014,5 hPa 0,0 l/m 0,8 km/h N 19,0 C 32,7 C 6,0 km/h
04.08.2018 15:00 33,3 C 40 % 1014,2 hPa 0,0 l/m 0,8 km/h N 17,7 C 33,3 C 6,4 km/h
04.08.2018 16:00 31,9 C 43 % 1013,9 hPa 0,0 l/m 0,5 km/h N 17,6 C 31,9 C 7,2 km/h
04.08.2018 17:00 31,7 C 42 % 1013,7 hPa 0,0 l/m 0,3 km/h N 17,1 C 31,7 C 4,8 km/h
04.08.2018 18:00 31,8 C 41 % 1013,6 hPa 0,0 l/m 0,0 km/h N 17,0 C 31,8 C 3,2 km/h
04.08.2018 19:00 31,6 C 42 % 1013,6 hPa 0,0 l/m 0,1 km/h N 17,1 C 31,6 C 4,0 km/h
04.08.2018 20:00 30,1 C 47 % 1013,8 hPa 0,0 l/m 0,0 km/h N 17,4 C 30,1 C 0,8 km/h
04.08.2018 21:00 26,5 C 57 % 1014,2 hPa 0,0 l/m 0,0 km/h N 17,3 C 26,5 C 0,0 km/h
04.08.2018 22:00 24,0 C 66 % 1014,3 hPa 0,0 l/m 0,0 km/h N 17,1 C 24,0 C 0,0 km/h
04.08.2018 23:00 22,6 C 71 % 1014,1 hPa 0,0 l/m 0,0 km/h N 17,0 C 22,6 C 0,0 km/h
05.08.2018 00:00 22,2 C 73 % 1014,0 hPa 0,0 l/m 0,0 km/h N 17,0 C 22,2 C 0,0 km/h
05.08.2018 01:00 22,3 C 73 % 1013,7 hPa 0,0 l/m 0,0 km/h N 17,2 C 22,3 C 0,4 km/h
05.08.2018 02:00 22,1 C 74 % 1013,5 hPa 0,0 l/m 0,0 km/h N 17,1 C 22,1 C 0,8 km/h
05.08.2018 03:00 21,5 C 74 % 1013,5 hPa 0,0 l/m 0,0 km/h N 16,7 C 21,5 C 0,4 km/h
05.08.2018 04:00 21,2 C 77 % 1013,4 hPa 0,0 l/m 0,3 km/h N 17,0 C 21,2 C 4,0 km/h
05.08.2018 05:00 20,7 C 78 % 1013,6 hPa 0,0 l/m 0,0 km/h N 16,7 C 20,7 C 0,4 km/h
05.08.2018 06:00 20,5 C 79 % 1013,8 hPa 0,0 l/m 0,0 km/h N 16,6 C 20,5 C 0,4 km/h
05.08.2018 07:00 21,3 C 78 % 1014,1 hPa 0,0 l/m 0,0 km/h N 17,3 C 21,3 C 0,0 km/h
05.08.2018 08:00 23,3 C 75 % 1014,4 hPa 0,0 l/m 0,0 km/h N 18,6 C 23,3 C 0,0 km/h
05.08.2018 09:00 27,8 C 59 % 1014,3 hPa 0,0 l/m 1,9 km/h N 18,9 C 27,8 C 8,9 km/h
05.08.2018 10:00 29,9 C 53 % 1014,4 hPa 0,0 l/m 4,1 km/h N 19,3 C 29,9 C 15,7 km/h
05.08.2018 11:00 30,7 C 52 % 1014,4 hPa 0,0 l/m 3,9 km/h N 19,6 C 30,7 C 11,3 km/h
05.08.2018 12:00 31,7 C 49 % 1014,3 hPa 0,0 l/m 4,8 km/h N 19,5 C 31,7 C 13,7 km/h
05.08.2018 13:00 31,9 C 47 % 1013,8 hPa 0,0 l/m 4,2 km/h N 19,0 C 31,9 C 15,7 km/h
05.08.2018 14:00 29,5 C 55 % 1014,1 hPa 0,0 l/m 5,6 km/h N 19,4 C 29,5 C 19,3 km/h
05.08.2018 15:00 28,7 C 58 % 1013,9 hPa 0,0 l/m 2,9 km/h N 19,5 C 28,7 C 13,3 km/h
05.08.2018 16:00 30,1 C 51 % 1013,7 hPa 0,0 l/m 1,2 km/h N 18,9 C 30,1 C 9,3 km/h
05.08.2018 17:00 30,5 C 53 % 1013,8 hPa 0,0 l/m 5,0 km/h N 19,8 C 30,5 C 14,9 km/h
05.08.2018 18:00 28,7 C 56 % 1014,3 hPa 0,0 l/m 0,7 km/h N 18,9 C 28,7 C 4,8 km/h
05.08.2018 19:00 27,9 C 60 % 1014,4 hPa 0,0 l/m 0,0 km/h N 19,3 C 27,9 C 0,8 km/h
05.08.2018 20:00 27,0 C 63 % 1014,7 hPa 0,0 l/m 0,0 km/h N 19,4 C 27,0 C 0,0 km/h
05.08.2018 21:00 25,0 C 70 % 1015,0 hPa 0,0 l/m 0,2 km/h N 19,1 C 25,0 C 2,8 km/h
05.08.2018 22:00 23,8 C 73 % 1015,0 hPa 0,0 l/m 0,0 km/h N 18,6 C 23,8 C 0,4 km/h
05.08.2018 23:00 22,7 C 77 % 1015,2 hPa 0,0 l/m 0,1 km/h N 18,3 C 22,7 C 2,8 km/h
Min-Datum _ 31.07.18 03.08.18 31.07.18 - 30.07.18 - 31.07.18 31.07.18 30.07.18
_ Min-Zeit 05:15 19:00 19:00 - 00:30 - 05:15 05:15 00:45
Minimum _ 19,3 C 37 % 1012,4 hPa - 0,0 km/h - 15,8 C 19,3 C 0,0 km/h
Max-Datum _ 04.08.18 03.08.18 03.08.18 30.07.18 05.08.18 - 04.08.18 04.08.18 05.08.18
_ Max-Zeit 12:45 03:15 09:15 00:00 14:30 - 11:45 12:45 14:30
Maximum _ 33,8 C 82 % 1018,5 hPa 0,0 l/m 8,5 km/h
N
- 21,9 C 33,8 C 25,7 km/h
N
Durchschnitt _ 26,0 C 65 % 1015,1 hPa #0,0 l/m 1,6 km/h N 18,6 C 26,0 C 7,1 km/h